CheckWX is a tool to help pilots better visualize weather data.  It is not intended as a substitute for an official pre-flight weather briefing.

20:09:09 UTC

KBCB TAF
Virginia Tech / Montgomery Executive Airport
Blacksburg, Virginia, USA
KBCB 251720Z 2518/2618 29008KT P6SM BKN070 FM252200 30005KT P6SM SCT060 FM260300 00000KT P6SM SKC FM260900 00000KT 4SM BR SCT001 FM261100 VRB03KT P6SM FEW008 FM261500 28003KT P6SM FEW100

Jun-25@
18:00 UTC

Jun-25 @ 18:00 UTC

Jun-25@
22:00 UTC

Jun-25 @ 22:00 UTC

KBCB 251720Z 2518/2618 29008KT P6SM BKN070
Wind
  • 290° at 8 KTS
Cloud Levels
  • Broken at 7,000' AGL

Jun-25@
22:00 UTC

Jun-25 @ 22:00 UTC

Jun-26@
03:00 UTC

Jun-26 @ 03:00 UTC

FM252200 30005KT P6SM SCT060

From

From Standard forecast or significant change

Wind
  • 300° at 5 KTS
Cloud Levels
  • Scattered at 6,000' AGL

Jun-26@
03:00 UTC

Jun-26 @ 03:00 UTC

Jun-26@
09:00 UTC

Jun-26 @ 09:00 UTC

FM260300 00000KT P6SM SKC

From

From Standard forecast or significant change

Cloud Levels
  • Clear skies

Jun-26@
09:00 UTC

Jun-26 @ 09:00 UTC

Jun-26@
11:00 UTC

Jun-26 @ 11:00 UTC

FM260900 00000KT 4SM BR SCT001

From

From Standard forecast or significant change

Conditions
Mist
Cloud Levels
  • Scattered at 100' AGL

Jun-26@
11:00 UTC

Jun-26 @ 11:00 UTC

Jun-26@
15:00 UTC

Jun-26 @ 15:00 UTC

FM261100 VRB03KT P6SM FEW008

From

From Standard forecast or significant change

Wind
  • Variable at 3 KTS
Cloud Levels
  • Few at 800' AGL

Jun-26@
15:00 UTC

Jun-26 @ 15:00 UTC

Jun-26@
18:00 UTC

Jun-26 @ 18:00 UTC

FM261500 28003KT P6SM FEW100

From

From Standard forecast or significant change

Wind
  • 280° at 3 KTS
Cloud Levels
  • Few at 10,000' AGL